Time;durP1;ratioP1;P1;durP2;ratioP2;P2;SDS_P1;SDS_P2;PMS_P1;PMS_P2;Temp;Humidity;BMP_temperature;BMP_pressure;BME280_temperature;BME280_humidity;BME280_pressure;Samples;Min_cycle;Max_cycle;Signal;HPM_P1;HPM_P2
2022/09/10 00:03:24;;;;;;;11;16.6;;;;;;;16;100;98330;;;;
2022/09/10 00:14:24;;;;;;;11;16.6;;;;;;;15.9;100;98310;;;;
2022/09/10 00:25:24;;;;;;;11;16.6;;;;;;;15.8;100;98310;;;;
2022/09/10 00:36:24;;;;;;;13.8;16.6;;;;;;;15.6;100;98310;;;;
2022/09/10 00:46:24;;;;;;;13.8;16.6;;;;;;;15.8;100;98310;;;;
2022/09/10 00:57:24;;;;;;;18.7;22;;;;;;;15.7;100;98310;;;;
2022/09/10 01:08:26;;;;;;;18.7;22;;;;;;;15.8;100;98310;;;;
2022/09/10 01:18:25;;;;;;;18.7;22;;;;;;;15.8;100;98320;;;;
2022/09/10 01:29:24;;;;;;;20.7;26.2;;;;;;;16;100;98320;;;;
2022/09/10 01:39:24;;;;;;;20.7;26.2;;;;;;;16.3;100;98320;;;;
2022/09/10 01:50:24;;;;;;;20.7;26.2;;;;;;;16.3;100;98320;;;;
2022/09/10 02:01:24;;;;;;;21.4;25;;;;;;;16.2;100;98320;;;;
2022/09/10 02:12:24;;;;;;;21.4;25;;;;;;;16.3;100;98300;;;;
2022/09/10 02:23:24;;;;;;;21.4;25;;;;;;;16.3;100;98290;;;;
2022/09/10 02:34:24;;;;;;;14.6;21.4;;;;;;;16.3;100;98280;;;;
2022/09/10 02:44:26;;;;;;;14.6;21.4;;;;;;;16.3;100;98260;;;;
2022/09/10 02:55:24;;;;;;;14.6;21.4;;;;;;;16.3;100;98260;;;;
2022/09/10 03:05:24;;;;;;;13;17.3;;;;;;;16.2;100;98270;;;;
2022/09/10 03:16:24;;;;;;;13;17.3;;;;;;;16.1;100;98270;;;;
2022/09/10 03:27:25;;;;;;;15.6;19.4;;;;;;;16;100;98280;;;;
2022/09/10 03:37:24;;;;;;;15.6;19.4;;;;;;;16.1;100;98260;;;;
2022/09/10 03:48:24;;;;;;;15.6;19.4;;;;;;;16.1;100;98260;;;;
2022/09/10 03:58:24;;;;;;;18.1;23.6;;;;;;;16.1;100;98270;;;;
2022/09/10 04:08:24;;;;;;;18.1;23.6;;;;;;;16;100;98260;;;;
2022/09/10 04:19:26;;;;;;;18.1;23.6;;;;;;;16;100;98260;;;;
2022/09/10 04:29:24;;;;;;;13.1;18.6;;;;;;;16;100;98260;;;;
2022/09/10 04:40:26;;;;;;;13.1;18.6;;;;;;;16;100;98250;;;;
2022/09/10 04:50:24;;;;;;;13.1;18.6;;;;;;;15.8;100;98250;;;;
2022/09/10 05:00:25;;;;;;;12.4;15.2;;;;;;;15.7;100;98240;;;;
2022/09/10 05:11:24;;;;;;;12.4;15.2;;;;;;;15.9;100;98230;;;;
2022/09/10 05:21:25;;;;;;;12.4;15.2;;;;;;;16.1;100;98230;;;;
2022/09/10 05:32:24;;;;;;;17.8;22.4;;;;;;;16;100;98230;;;;
2022/09/10 05:43:24;;;;;;;17.8;22.4;;;;;;;16.2;100;98230;;;;
2022/09/10 05:53:24;;;;;;;17.8;22.4;;;;;;;16.1;100;98230;;;;
2022/09/10 06:03:24;;;;;;;19.8;25.5;;;;;;;16.2;100;98230;;;;
2022/09/10 06:13:24;;;;;;;19.8;25.5;;;;;;;16.2;100;98220;;;;
2022/09/10 06:24:24;;;;;;;19.8;25.5;;;;;;;16.2;100;98220;;;;
2022/09/10 06:35:25;;;;;;;16.1;20.2;;;;;;;16.2;100;98220;;;;
2022/09/10 06:45:24;;;;;;;16.1;20.2;;;;;;;16.1;100;98230;;;;
2022/09/10 06:55:24;;;;;;;16.1;20.2;;;;;;;16;100;98240;;;;
2022/09/10 07:06:24;;;;;;;11.2;14.6;;;;;;;15.9;100;98240;;;;
2022/09/10 07:16:24;;;;;;;11.2;14.6;;;;;;;16.1;100;98240;;;;
2022/09/10 07:27:24;;;;;;;9.4;11.5;;;;;;;16.3;100;98250;;;;
2022/09/10 07:37:24;;;;;;;9.4;11.5;;;;;;;16.5;100;98240;;;;
2022/09/10 07:48:26;;;;;;;9.4;11.5;;;;;;;16.5;100;98250;;;;
2022/09/10 07:58:24;;;;;;;6.4;10.6;;;;;;;16.7;100;98250;;;;
2022/09/10 08:09:24;;;;;;;6.4;10.6;;;;;;;16.9;100;98260;;;;
2022/09/10 08:20:25;;;;;;;6.4;10.6;;;;;;;17.2;100;98250;;;;
2022/09/10 08:30:24;;;;;;;6.7;9;;;;;;;17.7;100;98260;;;;
2022/09/10 08:41:24;;;;;;;6.7;9;;;;;;;17.7;100;98260;;;;
2022/09/10 08:52:27;;;;;;;6.7;9;;;;;;;17.8;100;98260;;;;
2022/09/10 09:02:24;;;;;;;4;6.5;;;;;;;18.3;100;98260;;;;
2022/09/10 09:13:25;;;;;;;4;6.5;;;;;;;18.1;100;98260;;;;
2022/09/10 09:24:24;;;;;;;4;6.5;;;;;;;18.2;100;98260;;;;
2022/09/10 09:34:24;;;;;;;4;6;;;;;;;18.4;100;98260;;;;
2022/09/10 09:45:24;;;;;;;4;6;;;;;;;18.6;100;98250;;;;
2022/09/10 09:56:24;;;;;;;3.1;5;;;;;;;19.3;100;98250;;;;
2022/09/10 10:06:24;;;;;;;3.1;5;;;;;;;19;100;98250;;;;
2022/09/10 10:16:25;;;;;;;3.1;5;;;;;;;18.9;100;98240;;;;
2022/09/10 10:27:25;;;;;;;1.8;3.4;;;;;;;19.3;100;98240;;;;
2022/09/10 10:38:24;;;;;;;1.8;3.4;;;;;;;19.6;100;98240;;;;
2022/09/10 10:48:24;;;;;;;1.8;3.4;;;;;;;19.8;100;98240;;;;
2022/09/10 10:58:24;;;;;;;1.6;4.5;;;;;;;19.7;100;98240;;;;
2022/09/10 11:09:24;;;;;;;1.6;4.5;;;;;;;19.9;100;98240;;;;
2022/09/10 11:19:24;;;;;;;1.6;4.5;;;;;;;20.3;100;98230;;;;
2022/09/10 11:29:24;;;;;;;1.3;2.9;;;;;;;20.5;100;98230;;;;
2022/09/10 11:40:24;;;;;;;1.3;2.9;;;;;;;20.2;100;98230;;;;
2022/09/10 11:50:24;;;;;;;1.3;2.9;;;;;;;20.6;100;98210;;;;
2022/09/10 12:00:24;;;;;;;1.2;2.3;;;;;;;21.4;100;98210;;;;
2022/09/10 12:10:24;;;;;;;1.2;2.3;;;;;;;21.4;100;98190;;;;
2022/09/10 12:20:24;;;;;;;1.2;2.3;;;;;;;21.3;100;98180;;;;
2022/09/10 12:31:26;;;;;;;2;3.6;;;;;;;21.6;100;98170;;;;
2022/09/10 12:42:24;;;;;;;2;3.6;;;;;;;21.3;100;98160;;;;
2022/09/10 12:52:24;;;;;;;2;3.6;;;;;;;21.4;100;98150;;;;
2022/09/10 13:03:24;;;;;;;2.2;4.5;;;;;;;20.7;100;98130;;;;
2022/09/10 13:13:24;;;;;;;2.2;4.5;;;;;;;20.7;100;98130;;;;
2022/09/10 13:23:24;;;;;;;2.2;4.5;;;;;;;20.7;100;98130;;;;
2022/09/10 13:34:26;;;;;;;4;6.5;;;;;;;;;;;;;
2022/09/10 13:44:24;;;;;;;;;;;;;;;;;;;;;
2022/09/10 13:55:24;;;;;;;3;6.9;;;;;;;;;;;;;
2022/09/10 14:06:24;;;;;;;3;6.9;;;;;;;;;;;;;
2022/09/10 14:16:24;;;;;;;3;6.9;;;;;;;;;;;;;
2022/09/10 14:26:25;;;;;;;3.5;6.5;;;;;;;;;;;;;
2022/09/10 14:37:24;;;;;;;3.5;6.5;;;;;;;;;;;;;
2022/09/10 14:47:24;;;;;;;3.9;8.1;;;;;;;;;;;;;
2022/09/10 14:57:27;;;;;;;3.9;8.1;;;;;;;;;;;;;
2022/09/10 15:08:24;;;;;;;3.9;8.1;;;;;;;;;;;;;
2022/09/10 15:18:24;;;;;;;35.7;48.6;;;;;;;;;;;;;
2022/09/10 15:28:25;;;;;;;35.7;48.6;;;;;;;;;;;;;
2022/09/10 15:39:24;;;;;;;35.7;48.6;;;;;;;;;;;;;
2022/09/10 15:49:24;;;;;;;8.6;14;;;;;;;;;;;;;
2022/09/10 16:00:24;;;;;;;;;;;;;;;;;;;;;
2022/09/10 16:10:25;;;;;;;;;;;;;;;20.3;68.5;98300;;;;
2022/09/10 16:20:25;;;;;;;3.6;5.6;;;;;;;20;69.6;98300;;;;
2022/09/10 16:31:24;;;;;;;3.6;5.6;;;;;;;19.6;70.5;98300;;;;
2022/09/10 16:41:24;;;;;;;3.6;5.6;;;;;;;19.2;72.1;98300;;;;
2022/09/10 16:51:25;;;;;;;6;9.1;;;;;;;18.9;73.2;98290;;;;
2022/09/10 17:01:24;;;;;;;6;9.1;;;;;;;18.6;74.6;98280;;;;
2022/09/10 17:12:24;;;;;;;4.6;8;;;;;;;18.4;74.7;98290;;;;
2022/09/10 17:22:25;;;;;;;4.6;8;;;;;;;18.2;75.5;98290;;;;
2022/09/10 17:33:24;;;;;;;4.6;8;;;;;;;17.8;77.3;98280;;;;
2022/09/10 17:44:25;;;;;;;6;8.3;;;;;;;17.4;78.3;98290;;;;
2022/09/10 17:54:24;;;;;;;6;8.3;;;;;;;17.5;78.2;98320;;;;
2022/09/10 18:05:25;;;;;;;6;8.3;;;;;;;16.7;69.5;98340;;;;
2022/09/10 18:15:25;;;;;;;4.2;6.4;;;;;;;16.3;72.1;98340;;;;
2022/09/10 18:26:24;;;;;;;4.2;6.4;;;;;;;15.9;72.6;98340;;;;
2022/09/10 18:37:24;;;;;;;4.2;6.4;;;;;;;15.7;72.6;98340;;;;
2022/09/10 18:47:25;;;;;;;1.5;3.4;;;;;;;15.5;73.4;98330;;;;
2022/09/10 18:57:24;;;;;;;1.5;3.4;;;;;;;15.2;74.2;98330;;;;
2022/09/10 19:08:24;;;;;;;1.5;3.4;;;;;;;14.7;75.2;98320;;;;
2022/09/10 19:19:24;;;;;;;2.6;5.4;;;;;;;14.6;76;98310;;;;
2022/09/10 19:30:24;;;;;;;2.6;5.4;;;;;;;14.4;76.4;98320;;;;
2022/09/10 19:41:24;;;;;;;2.6;5.4;;;;;;;14.4;76.2;98320;;;;
2022/09/10 19:52:25;;;;;;;1.7;4.1;;;;;;;14.3;76.3;98320;;;;
2022/09/10 20:02:24;;;;;;;1.7;4.1;;;;;;;14.4;77.8;98320;;;;
2022/09/10 20:13:24;;;;;;;3.1;6.1;;;;;;;14.6;80.2;98330;;;;
2022/09/10 20:24:27;;;;;;;3.1;6.1;;;;;;;14.8;82.5;98330;;;;
2022/09/10 20:35:24;;;;;;;3.1;6.1;;;;;;;14.9;83.2;98320;;;;
2022/09/10 20:45:24;;;;;;;6.9;8.9;;;;;;;14.8;83.7;98320;;;;
2022/09/10 20:56:24;;;;;;;6.9;8.9;;;;;;;14.8;82.8;98330;;;;
2022/09/10 21:06:24;;;;;;;6.9;8.9;;;;;;;14.7;81.7;98330;;;;
2022/09/10 21:17:24;;;;;;;3.6;7.1;;;;;;;14.7;80.8;98330;;;;
2022/09/10 21:27:24;;;;;;;3.6;7.1;;;;;;;14.5;80.2;98330;;;;
2022/09/10 21:37:24;;;;;;;3.6;7.1;;;;;;;14.4;80.5;98340;;;;
2022/09/10 21:48:24;;;;;;;2.7;4.6;;;;;;;14.4;80.9;98350;;;;
2022/09/10 21:58:26;;;;;;;2.7;4.6;;;;;;;14.5;81.6;98350;;;;
2022/09/10 22:09:25;;;;;;;2.7;4.6;;;;;;;14.6;82.1;98350;;;;
2022/09/10 22:20:24;;;;;;;3.3;6;;;;;;;14.8;81.6;98340;;;;
2022/09/10 22:30:26;;;;;;;3.3;6;;;;;;;14.6;81.1;98340;;;;
2022/09/10 22:41:24;;;;;;;3.2;6.2;;;;;;;14.3;81.4;98330;;;;
2022/09/10 22:51:24;;;;;;;3.2;6.2;;;;;;;14.1;81.5;98330;;;;
2022/09/10 23:01:24;;;;;;;3.2;6.2;;;;;;;13.9;81.6;98330;;;;
2022/09/10 23:12:24;;;;;;;2.7;6;;;;;;;13.7;81.6;98320;;;;
2022/09/10 23:22:24;;;;;;;2.7;6;;;;;;;13.4;81.7;98330;;;;
2022/09/10 23:33:24;;;;;;;2.7;6;;;;;;;13.3;82.7;98330;;;;
2022/09/10 23:44:24;;;;;;;2.7;6.2;;;;;;;13.3;83.3;98330;;;;
2022/09/10 23:54:24;;;;;;;2.7;6.2;;;;;;;13.2;83.2;98330;;;;
